PWSweather.com
Personal Weather Stations
Station Observations
KVAGLENALL
West Henrico, Glen Allen, VA 23060-6503

West HenricoGlen Allen, VA 23060-6503

Lat: 37.6554, Lon: -77.5693

Elevation: 273

Station Type: Davis Vantage Pro II

Latest ConditionsUpdated 9:00:24 PM EDT Saturday, Oct 21, 2017
Currently Today's Max Today's Min Today's Average
Temperature 62.0°F16.7°C 77.6°F25.3°C 48.7°F9.3°C 62.3°F16.8°C
Dew Point 54.4°F12.4°C 57.9°F14.4°C 47.5°F8.6°C 52.9°F11.6°C
Winds 0.1 mph ESE0.2 kmh ESE 4.1 mph ENE6.6 kmh ENE - 0.7 mph 1.1 kmh
Wind Gusts 3.1 mph5.0 kmh 5.1 mph8.2 kmh - -
Humidity 76% 98% 42% 75%
Pressure 30.35 in1027.8 mb 30.36 in1028.1 mb 30.26 in1024.7 mb -
Hour Temp Dew Point Humidity Winds Wind Gusts Pressure Precip Precip Rate Daily Precip Total
09:00 PM 62.0°F16.7°C 54.4°F12.4°C 76% 0.1 mph ESE0.2 kmh ESE 3.1 mph5.0 kmh 30.35 in1027.8 mb 0.00 in0.0 mm 0.00 in0.0 mm 0.00 in0.0 mm
08:45 PM 61.2°F16.2°C 54.3°F12.4°C 78% 2.0 mph ESE3.2 kmh ESE 4.1 mph6.6 kmh 30.35 in1027.8 mb 0.00 in0.0 mm 0.00 in0.0 mm 0.00 in0.0 mm
08:30 PM 61.2°F16.2°C 55.0°F12.8°C 80% 0.1 mph ESE0.2 kmh ESE 0.1 mph0.2 kmh 30.35 in1027.8 mb 0.00 in0.0 mm 0.00 in0.0 mm 0.00 in0.0 mm
08:15 PM 61.3°F16.3°C 55.1°F12.8°C 80% 1.0 mph ESE1.6 kmh ESE 1.1 mph1.8 kmh 30.34 in1027.4 mb 0.00 in0.0 mm 0.00 in0.0 mm 0.00 in0.0 mm
08:00 PM 62.1°F16.7°C 55.2°F12.9°C 78% 0.1 mph ESE0.2 kmh ESE 1.1 mph1.8 kmh 30.35 in1027.8 mb 0.00 in0.0 mm 0.00 in0.0 mm 0.00 in0.0 mm
07:45 PM 62.8°F17.1°C 55.5°F13.1°C 77% 0.1 mph ESE0.2 kmh ESE 0.1 mph0.2 kmh 30.35 in1027.8 mb 0.00 in0.0 mm 0.00 in0.0 mm 0.00 in0.0 mm
07:30 PM 63.7°F17.6°C 56.0°F13.3°C 76% 0.1 mph ESE0.2 kmh ESE 0.1 mph0.2 kmh 30.34 in1027.4 mb 0.00 in0.0 mm 0.00 in0.0 mm 0.00 in0.0 mm
07:15 PM 64.3°F17.9°C 55.1°F12.8°C 72% 0.1 mph ESE0.2 kmh ESE 0.1 mph0.2 kmh 30.34 in1027.4 mb 0.00 in0.0 mm 0.00 in0.0 mm 0.00 in0.0 mm
07:00 PM 64.9°F18.3°C 55.7°F13.2°C 72% 0.1 mph E0.2 kmh E 2.1 mph3.4 kmh 30.33 in1027.1 mb 0.00 in0.0 mm 0.00 in0.0 mm 0.00 in0.0 mm
06:45 PM 65.6°F18.7°C 56.0°F13.3°C 71% 0.1 mph E0.2 kmh E 1.1 mph1.8 kmh 30.33 in1027.1 mb 0.00 in0.0 mm 0.00 in0.0 mm 0.00 in0.0 mm
06:30 PM 66.6°F19.2°C 56.9°F13.8°C 71% 0.1 mph E0.2 kmh E 1.1 mph1.8 kmh 30.33 in1027.1 mb 0.00 in0.0 mm 0.00 in0.0 mm 0.00 in0.0 mm
06:15 PM 67.5°F19.7°C 56.6°F13.7°C 68% 0.1 mph E0.2 kmh E 0.1 mph0.2 kmh 30.33 in1027.1 mb 0.00 in0.0 mm 0.00 in0.0 mm 0.00 in0.0 mm
06:00 PM 68.9°F20.5°C 57.1°F13.9°C 66% 0.1 mph E0.2 kmh E 0.1 mph0.2 kmh 30.32 in1026.8 mb 0.00 in0.0 mm 0.00 in0.0 mm 0.00 in0.0 mm
05:45 PM 70.3°F21.3°C 57.1°F13.9°C 63% 0.1 mph E0.2 kmh E 1.1 mph1.8 kmh 30.32 in1026.8 mb 0.00 in0.0 mm 0.00 in0.0 mm 0.00 in0.0 mm
05:30 PM 71.4°F21.9°C 57.2°F14.0°C 61% 0.1 mph E0.2 kmh E 1.1 mph1.8 kmh 30.32 in1026.8 mb 0.00 in0.0 mm 0.00 in0.0 mm 0.00 in0.0 mm
05:15 PM 72.9°F22.7°C 56.8°F13.8°C 57% 1.0 mph E1.6 kmh E 1.1 mph1.8 kmh 30.32 in1026.8 mb 0.00 in0.0 mm 0.00 in0.0 mm 0.00 in0.0 mm
05:00 PM 73.9°F23.3°C 56.2°F13.4°C 54% 1.0 mph E1.6 kmh E 2.1 mph3.4 kmh 30.31 in1026.4 mb 0.00 in0.0 mm 0.00 in0.0 mm 0.00 in0.0 mm
04:45 PM 75.1°F23.9°C 52.3°F11.3°C 45% 1.0 mph ENE1.6 kmh ENE 3.1 mph5.0 kmh 30.32 in1026.8 mb 0.00 in0.0 mm 0.00 in0.0 mm 0.00 in0.0 mm
04:30 PM 75.7°F24.3°C 52.2°F11.2°C 44% 3.0 mph E4.8 kmh E 4.1 mph6.6 kmh 30.31 in1026.4 mb 0.00 in0.0 mm 0.00 in0.0 mm 0.00 in0.0 mm
04:15 PM 76.1°F24.5°C 53.2°F11.8°C 45% 0.1 mph E0.2 kmh E 4.1 mph6.6 kmh 30.31 in1026.4 mb 0.00 in0.0 mm 0.00 in0.0 mm 0.00 in0.0 mm
04:00 PM 76.3°F24.6°C 52.8°F11.6°C 44% 1.0 mph E1.6 kmh E 3.1 mph5.0 kmh 30.31 in1026.4 mb 0.00 in0.0 mm 0.00 in0.0 mm 0.00 in0.0 mm
03:45 PM 76.9°F24.9°C 52.1°F11.2°C 42% 1.0 mph SE1.6 kmh SE 2.1 mph3.4 kmh 30.31 in1026.4 mb 0.00 in0.0 mm 0.00 in0.0 mm 0.00 in0.0 mm
03:30 PM 77.5°F25.3°C 54.5°F12.5°C 45% 1.0 mph E1.6 kmh E 3.1 mph5.0 kmh 30.31 in1026.4 mb 0.00 in0.0 mm 0.00 in0.0 mm 0.00 in0.0 mm
03:15 PM 77.2°F25.1°C 53.6°F12.0°C 44% 0.1 mph N0.2 kmh N 1.1 mph1.8 kmh 30.31 in1026.4 mb 0.00 in0.0 mm 0.00 in0.0 mm 0.00 in0.0 mm
03:00 PM 77.3°F25.2°C 54.3°F12.4°C 45% 0.1 mph W0.2 kmh W 2.1 mph3.4 kmh 30.31 in1026.4 mb 0.00 in0.0 mm 0.00 in0.0 mm 0.00 in0.0 mm
02:45 PM 77.5°F25.3°C 52.6°F11.4°C 42% 1.0 mph ESE1.6 kmh ESE 3.1 mph5.0 kmh 30.31 in1026.4 mb 0.00 in0.0 mm 0.00 in0.0 mm 0.00 in0.0 mm
02:30 PM 77.2°F25.1°C 53.0°F11.7°C 43% 4.1 mph ENE6.6 kmh ENE 4.1 mph6.6 kmh 30.31 in1026.4 mb 0.00 in0.0 mm 0.00 in0.0 mm 0.00 in0.0 mm
02:15 PM 77.6°F25.3°C 53.3°F11.8°C 43% 3.0 mph NE4.8 kmh NE 3.1 mph5.0 kmh 30.31 in1026.4 mb 0.00 in0.0 mm 0.00 in0.0 mm 0.00 in0.0 mm
02:00 PM 77.4°F25.2°C 55.6°F13.1°C 47% 0.1 mph NNW0.2 kmh NNW 1.1 mph1.8 kmh 30.31 in1026.4 mb 0.00 in0.0 mm 0.00 in0.0 mm 0.00 in0.0 mm
01:45 PM 77.0°F25.0°C 55.2°F12.9°C 47% 0.1 mph W0.2 kmh W 3.1 mph5.0 kmh 30.32 in1026.8 mb 0.00 in0.0 mm 0.00 in0.0 mm 0.00 in0.0 mm
01:30 PM 76.8°F24.9°C 53.2°F11.8°C 44% 1.0 mph ENE1.6 kmh ENE 2.1 mph3.4 kmh 30.32 in1026.8 mb 0.00 in0.0 mm 0.00 in0.0 mm 0.00 in0.0 mm
01:15 PM 76.8°F24.9°C 53.2°F11.8°C 44% 2.0 mph N3.2 kmh N 3.1 mph5.0 kmh 30.33 in1027.1 mb 0.00 in0.0 mm 0.00 in0.0 mm 0.00 in0.0 mm
01:00 PM 77.4°F25.2°C 53.8°F12.1°C 44% 1.0 mph S1.6 kmh S 2.1 mph3.4 kmh 30.34 in1027.4 mb 0.00 in0.0 mm 0.00 in0.0 mm 0.00 in0.0 mm
12:45 PM 76.2°F24.6°C 55.7°F13.2°C 49% 3.0 mph E4.8 kmh E 4.1 mph6.6 kmh 30.35 in1027.8 mb 0.00 in0.0 mm 0.00 in0.0 mm 0.00 in0.0 mm
12:30 PM 75.4°F24.1°C 56.0°F13.3°C 51% 2.0 mph NNW3.2 kmh NNW 2.1 mph3.4 kmh 30.35 in1027.8 mb 0.00 in0.0 mm 0.00 in0.0 mm 0.00 in0.0 mm
12:15 PM 75.5°F24.2°C 53.9°F12.2°C 47% 2.0 mph N3.2 kmh N 4.1 mph6.6 kmh 30.36 in1028.1 mb 0.00 in0.0 mm 0.00 in0.0 mm 0.00 in0.0 mm
12:00 PM 74.9°F23.8°C 55.6°F13.1°C 51% 1.0 mph E1.6 kmh E 3.1 mph5.0 kmh 30.36 in1028.1 mb 0.00 in0.0 mm 0.00 in0.0 mm 0.00 in0.0 mm
11:45 AM 73.1°F22.8°C 57.4°F14.1°C 58% 0.1 mph NE0.2 kmh NE 2.1 mph3.4 kmh 30.36 in1028.1 mb 0.00 in0.0 mm 0.00 in0.0 mm 0.00 in0.0 mm
11:30 AM 72.5°F22.5°C 56.9°F13.8°C 58% 2.0 mph E3.2 kmh E 3.1 mph5.0 kmh 30.36 in1028.1 mb 0.00 in0.0 mm 0.00 in0.0 mm 0.00 in0.0 mm
11:15 AM 72.0°F22.2°C 56.4°F13.6°C 58% 1.0 mph N1.6 kmh N 2.1 mph3.4 kmh 30.36 in1028.1 mb 0.00 in0.0 mm 0.00 in0.0 mm 0.00 in0.0 mm
11:00 AM 71.2°F21.8°C 56.6°F13.7°C 60% 1.0 mph ENE1.6 kmh ENE 4.1 mph6.6 kmh 30.36 in1028.1 mb 0.00 in0.0 mm 0.00 in0.0 mm 0.00 in0.0 mm
10:45 AM 70.5°F21.4°C 56.8°F13.8°C 62% 0.1 mph E0.2 kmh E 1.1 mph1.8 kmh 30.36 in1028.1 mb 0.00 in0.0 mm 0.00 in0.0 mm 0.00 in0.0 mm
10:30 AM 68.8°F20.4°C 57.9°F14.4°C 68% 0.1 mph NE0.2 kmh NE 1.1 mph1.8 kmh 30.36 in1028.1 mb 0.00 in0.0 mm 0.00 in0.0 mm 0.00 in0.0 mm
10:15 AM 66.2°F19.0°C 56.6°F13.7°C 71% 2.0 mph NE3.2 kmh NE 3.1 mph5.0 kmh 30.36 in1028.1 mb 0.00 in0.0 mm 0.00 in0.0 mm 0.00 in0.0 mm
10:00 AM 63.9°F17.7°C 55.9°F13.3°C 75% 1.0 mph NE1.6 kmh NE 3.1 mph5.0 kmh 30.36 in1028.1 mb 0.00 in0.0 mm 0.00 in0.0 mm 0.00 in0.0 mm
09:45 AM 62.1°F16.7°C 56.2°F13.4°C 81% 3.0 mph NE4.8 kmh NE 5.1 mph8.2 kmh 30.36 in1028.1 mb 0.00 in0.0 mm 0.00 in0.0 mm 0.00 in0.0 mm
09:30 AM 59.7°F15.4°C 55.5°F13.1°C 86% 2.0 mph NNE3.2 kmh NNE 2.1 mph3.4 kmh 30.36 in1028.1 mb 0.00 in0.0 mm 0.00 in0.0 mm 0.00 in0.0 mm
09:15 AM 57.4°F14.1°C 55.4°F13.0°C 93% 1.0 mph N1.6 kmh N 1.1 mph1.8 kmh 30.36 in1028.1 mb 0.00 in0.0 mm 0.00 in0.0 mm 0.00 in0.0 mm
09:00 AM 54.8°F12.7°C 53.9°F12.2°C 97% 2.0 mph N3.2 kmh N 2.1 mph3.4 kmh 30.35 in1027.8 mb 0.00 in0.0 mm 0.00 in0.0 mm 0.00 in0.0 mm
08:45 AM 53.7°F12.1°C 53.1°F11.7°C 98% 0.1 mph N0.2 kmh N 2.1 mph3.4 kmh 30.34 in1027.4 mb 0.00 in0.0 mm 0.00 in0.0 mm 0.00 in0.0 mm
08:30 AM 50.4°F10.2°C 49.5°F9.7°C 97% 0.1 mph NW0.2 kmh NW 0.1 mph0.2 kmh 30.34 in1027.4 mb 0.00 in0.0 mm 0.00 in0.0 mm 0.00 in0.0 mm
08:15 AM 49.2°F9.6°C 48.2°F9.0°C 96% 0.1 mph NW0.2 kmh NW 0.1 mph0.2 kmh 30.34 in1027.4 mb 0.00 in0.0 mm 0.00 in0.0 mm 0.00 in0.0 mm
08:00 AM 48.7°F9.3°C 47.7°F8.7°C 96% 0.1 mph NW0.2 kmh NW 0.1 mph0.2 kmh 30.33 in1027.1 mb 0.00 in0.0 mm 0.00 in0.0 mm 0.00 in0.0 mm
07:45 AM 48.7°F9.3°C 47.7°F8.7°C 96% 0.1 mph NW0.2 kmh NW 0.1 mph0.2 kmh 30.32 in1026.8 mb 0.00 in0.0 mm 0.00 in0.0 mm 0.00 in0.0 mm
07:30 AM 48.8°F9.3°C 47.5°F8.6°C 95% 0.1 mph NW0.2 kmh NW 0.1 mph0.2 kmh 30.32 in1026.8 mb 0.00 in0.0 mm 0.00 in0.0 mm 0.00 in0.0 mm
07:15 AM 49.5°F9.7°C 48.4°F9.1°C 96% 1.0 mph N1.6 kmh N 2.1 mph3.4 kmh 30.31 in1026.4 mb 0.00 in0.0 mm 0.00 in0.0 mm 0.00 in0.0 mm
07:00 AM 49.8°F9.9°C 48.7°F9.3°C 96% 1.0 mph N1.6 kmh N 2.1 mph3.4 kmh 30.31 in1026.4 mb 0.00 in0.0 mm 0.00 in0.0 mm 0.00 in0.0 mm
06:45 AM 49.8°F9.9°C 48.7°F9.3°C 96% 0.1 mph NNW0.2 kmh NNW 2.1 mph3.4 kmh 30.31 in1026.4 mb 0.00 in0.0 mm 0.00 in0.0 mm 0.00 in0.0 mm
06:30 AM 50.2°F10.1°C 49.1°F9.5°C 96% 0.1 mph NNW0.2 kmh NNW 0.1 mph0.2 kmh 30.30 in1026.1 mb 0.00 in0.0 mm 0.00 in0.0 mm 0.00 in0.0 mm
06:15 AM 50.2°F10.1°C 49.1°F9.5°C 96% 1.0 mph NNW1.6 kmh NNW 1.1 mph1.8 kmh 30.30 in1026.1 mb 0.00 in0.0 mm 0.00 in0.0 mm 0.00 in0.0 mm
06:00 AM 50.0°F10.0°C 48.9°F9.4°C 96% 1.0 mph N1.6 kmh N 1.1 mph1.8 kmh 30.29 in1025.7 mb 0.00 in0.0 mm 0.00 in0.0 mm 0.00 in0.0 mm
05:45 AM 49.5°F9.7°C 48.1°F8.9°C 95% 0.1 mph N0.2 kmh N 0.1 mph0.2 kmh 30.29 in1025.7 mb 0.00 in0.0 mm 0.00 in0.0 mm 0.00 in0.0 mm
05:30 AM 49.7°F9.8°C 48.3°F9.1°C 95% 0.1 mph N0.2 kmh N 1.1 mph1.8 kmh 30.28 in1025.4 mb 0.00 in0.0 mm 0.00 in0.0 mm 0.00 in0.0 mm
05:15 AM 49.8°F9.9°C 48.4°F9.1°C 95% 0.1 mph N0.2 kmh N 0.1 mph0.2 kmh 30.28 in1025.4 mb 0.00 in0.0 mm 0.00 in0.0 mm 0.00 in0.0 mm
05:00 AM 49.9°F9.9°C 48.5°F9.2°C 95% 0.1 mph N0.2 kmh N 0.1 mph0.2 kmh 30.28 in1025.4 mb 0.00 in0.0 mm 0.00 in0.0 mm 0.00 in0.0 mm
04:45 AM 50.5°F10.3°C 49.1°F9.5°C 95% 0.1 mph N0.2 kmh N 0.1 mph0.2 kmh 30.27 in1025.1 mb 0.00 in0.0 mm 0.00 in0.0 mm 0.00 in0.0 mm
04:30 AM 50.6°F10.3°C 49.2°F9.6°C 95% 0.1 mph N0.2 kmh N 0.1 mph0.2 kmh 30.27 in1025.1 mb 0.00 in0.0 mm 0.00 in0.0 mm 0.00 in0.0 mm
04:15 AM 50.9°F10.5°C 49.5°F9.7°C 95% 0.1 mph N0.2 kmh N 0.1 mph0.2 kmh 30.27 in1025.1 mb 0.00 in0.0 mm 0.00 in0.0 mm 0.00 in0.0 mm
04:00 AM 51.0°F10.6°C 49.6°F9.8°C 95% 0.1 mph N0.2 kmh N 0.1 mph0.2 kmh 30.27 in1025.1 mb 0.00 in0.0 mm 0.00 in0.0 mm 0.00 in0.0 mm
03:45 AM 51.3°F10.7°C 49.9°F9.9°C 95% 0.1 mph N0.2 kmh N 0.1 mph0.2 kmh 30.26 in1024.7 mb 0.00 in0.0 mm 0.00 in0.0 mm 0.00 in0.0 mm
03:30 AM 51.6°F10.9°C 50.2°F10.1°C 95% 0.1 mph N0.2 kmh N 0.1 mph0.2 kmh 30.27 in1025.1 mb 0.00 in0.0 mm 0.00 in0.0 mm 0.00 in0.0 mm
03:15 AM 51.3°F10.7°C 49.9°F9.9°C 95% 0.1 mph N0.2 kmh N 0.1 mph0.2 kmh 30.27 in1025.1 mb 0.00 in0.0 mm 0.00 in0.0 mm 0.00 in0.0 mm
03:00 AM 51.7°F10.9°C 50.0°F10.0°C 94% 0.1 mph N0.2 kmh N 0.1 mph0.2 kmh 30.27 in1025.1 mb 0.00 in0.0 mm 0.00 in0.0 mm 0.00 in0.0 mm
02:45 AM 52.1°F11.2°C 50.7°F10.4°C 95% 0.1 mph N0.2 kmh N 0.1 mph0.2 kmh 30.27 in1025.1 mb 0.00 in0.0 mm 0.00 in0.0 mm 0.00 in0.0 mm
02:30 AM 52.2°F11.2°C 50.5°F10.3°C 94% 0.1 mph N0.2 kmh N 0.1 mph0.2 kmh 30.27 in1025.1 mb 0.00 in0.0 mm 0.00 in0.0 mm 0.00 in0.0 mm
02:15 AM 52.5°F11.4°C 50.8°F10.4°C 94% 0.1 mph N0.2 kmh N 0.1 mph0.2 kmh 30.27 in1025.1 mb 0.00 in0.0 mm 0.00 in0.0 mm 0.00 in0.0 mm
02:00 AM 53.2°F11.8°C 51.5°F10.8°C 94% 0.1 mph N0.2 kmh N 0.1 mph0.2 kmh 30.28 in1025.4 mb 0.00 in0.0 mm 0.00 in0.0 mm 0.00 in0.0 mm
01:45 AM 53.1°F11.7°C 51.4°F10.8°C 94% 0.1 mph N0.2 kmh N 0.1 mph0.2 kmh 30.27 in1025.1 mb 0.00 in0.0 mm 0.00 in0.0 mm 0.00 in0.0 mm
01:30 AM 53.2°F11.8°C 51.2°F10.7°C 93% 0.1 mph N0.2 kmh N 0.1 mph0.2 kmh 30.27 in1025.1 mb 0.00 in0.0 mm 0.00 in0.0 mm 0.00 in0.0 mm
01:15 AM 53.7°F12.1°C 52.0°F11.1°C 94% 0.1 mph N0.2 kmh N 0.1 mph0.2 kmh 30.27 in1025.1 mb 0.00 in0.0 mm 0.00 in0.0 mm 0.00 in0.0 mm
01:00 AM 54.0°F12.2°C 52.0°F11.1°C 93% 0.1 mph N0.2 kmh N 0.1 mph0.2 kmh 30.28 in1025.4 mb 0.00 in0.0 mm 0.00 in0.0 mm 0.00 in0.0 mm
12:45 AM 54.4°F12.4°C 52.4°F11.3°C 93% 0.1 mph N0.2 kmh N 0.1 mph0.2 kmh 30.27 in1025.1 mb 0.00 in0.0 mm 0.00 in0.0 mm 0.00 in0.0 mm
12:30 AM 54.4°F12.4°C 52.1°F11.2°C 92% 0.1 mph N0.2 kmh N 0.1 mph0.2 kmh 30.27 in1025.1 mb 0.00 in0.0 mm 0.00 in0.0 mm 0.00 in0.0 mm
12:15 AM 54.5°F12.5°C 51.9°F11.1°C 91% 0.1 mph N0.2 kmh N 0.1 mph0.2 kmh 30.27 in1025.1 mb 0.00 in0.0 mm 0.00 in0.0 mm 0.00 in0.0 mm
12:00 AM 55.2°F12.9°C 52.3°F11.3°C 90% 0.1 mph N0.2 kmh N 0.1 mph0.2 kmh 30.27 in1025.1 mb 0.00 in0.0 mm 0.00 in0.0 mm 0.00 in0.0 mm